EBCIEBOS

Guest
Details From EBCI - Brussels South - Charleroi
To EBOS - Oostende
Flight Number -
Tags Generated
Created
Modified
Stats Distance 74 nm / 138 km
Max Altitude 0 ft / 0 m
Waypoints 2
Social Downloads 0
Likes 0
Share VATSIM

Download

Looking for another format? Having issues loading an existing format? Contact us
Advertisement - Login to hide

Notes

Generated

Route

EBCI EBOS

ID Type Via Altitude Latitude Longitude Leg Dist Tot Dist Heading (true) Name
O EBCI APT - 0 ft / 0 m 50.45539˚ 4.43664˚ - 0 nm - -
O EBOS APT - 0 ft / 0 m 51.19832˚ 2.86670˚ 74 nm 74 nm 307° / 306° -

Altitude Profile

Advertisement - Login to hide

EBCI

Details ICAO EBCI (CRL)
Name Brussels South - Charleroi
Region Belgium
Timezone Europe/Brussels (UTC+1.0)
Stats Elevation 614 ft / 187 m (AMSL)
Location 50.459947° 4.453125°
Runways 1
Magnetic Variation 1.133° E

METAR

EBCI 120450Z 25011KT 9999 FEW004 BKN006 01/00 Q1001 TEMPO 3000 SHSN

Decode

TAF

TAF EBCI 112310Z 1200/1306 26009KT 7000 SCT005 BKN008 TEMPO 1204/1212 1200 SHSN SCT002 BKN004 BKN009CB BECMG 1212/1214 SCT008 SCT016 TEMPO 1212/1215 2500 SHSNRA SHRASN SCT004 BKN006 BKN010CB BECMG 1219/1221 SCT006 BKN009 BECMG 1221/1223 20015G25KT BECMG 1304/1306 19020G35KT 3000 RA RADZ

Decode

Departure Runways

ID Width Length Bearing (true) Bearing (mag) Surface Threshold Offset Overrun Length
07 148 ft / 45 m 8,374 ft / 2,552 m 65.53° 64.40° Asphalt 1,476 ft / 450 m 0 ft / 0 m
25 148 ft / 45 m 8,374 ft / 2,552 m 245.55° 244.42° Asphalt 0 ft / 0 m 0 ft / 0 m

EBOS

Details ICAO EBOS (OST)
Name Oostende
Region Belgium
Timezone Europe/Brussels (UTC+1.0)
Stats Elevation 13 ft / 4 m (AMSL)
Location 51.199967° 2.875008°
Runways 1
Magnetic Variation 0.588° E

METAR

EBOS 120450Z 22008KT 8000 SCT008 BKN010 01/M00 Q1002 RESHRA RESHSN R08/695092 TEMPO 2500 SHRASN BKN012CB

Decode

TAF

TAF EBOS 112310Z 1200/1306 35015KT 9999 FEW011 SCT020 TEMPO 1201/1213 3500 SHRASN SHRA BKN008 BKN013CB BECMG 1202/1204 27011KT BECMG 1216/1218 21009KT BECMG 1221/1223 21015G25KT BECMG 1302/1304 18020G35KT

Decode

Destination Runways

ID Width Length Bearing (true) Bearing (mag) Surface Threshold Offset Overrun Length
08 148 ft / 45 m 10,515 ft / 3,205 m 76.36° 75.77° Asphalt 984 ft / 300 m 0 ft / 0 m
26 148 ft / 45 m 10,515 ft / 3,205 m 256.39° 255.80° Asphalt 1,362 ft / 415 m 0 ft / 0 m

Approach Navaids

Runway Type Ident Frequency Range Bearing (true) Bearing (mag) Slope Elevation
08 Localiser IMI 111.55 MHz 18 nm / 33 km 76.37° 75.79° - 13 ft / 4 m (AMSL)
08 Glidescope IMI 111.55 MHz 10 nm / 19 km 76.37° 75.79° 3.00° 13 ft / 4 m (AMSL)
08 DME IMI 111.55 MHz 18 nm / 33 km - - - 13 ft / 4 m (AMSL)
26 Localiser IOS 109.50 MHz 18 nm / 33 km 256.37° 255.79° - 13 ft / 4 m (AMSL)
26 Glidescope IOS 109.50 MHz 10 nm / 19 km 256.37° 255.79° 3.00° 13 ft / 4 m (AMSL)

Popular Alternatives